M I D A S
Marine Information and Data Acquisition System
Tripno 1234 of the Zeeleeuw from 2007-03-19 08:20:02 to 2007-03-19 11:45:25
Back to CruiseResearch ActivitiesStationsMapUnderway DataData graphs

EquipmentUnitsComment
TimeDGPSUTC
LatitudeDGPSDM.mWGS84
LongitudeDGPSDM.mWGS84
TemperatureSBE03/SBE38deg celciusITS90
ConductivitySBE21S/mITS90
SalinitySBE21 Practical Salinity Units
ChlorophylAChelsea fluorimeterg/lCalibrated in Aceton
Missing or incorrect values are displayed as -999
Sea surface data collected by the RV Zeeleeuw from 2007-03-19 08:19:51 to 2007-03-19 12:56:07
Time Latitude Longitude Temperature Conductivity Salinity ChlorophylA
2007-03-19 08:20:56 51°13.616 2°56.03 9.7826 2.786284 23.620019 -2.871232
2007-03-19 08:21:56 51°13.648 2°55.956 9.6238 2.911934 25.032095 -2.871232
2007-03-19 08:22:56 51°13.688 2°55.848 9.5614 2.937379 25.364454 -2.871232
2007-03-19 08:23:56 51°13.724 2°55.738 9.5206 2.907282 25.114621 -2.871232
2007-03-19 08:24:56 51°13.731 2°55.729 9.4955 2.832925 24.4435 -2.871232
2007-03-19 08:25:56 51°13.727 2°55.717 9.4943 2.648789 22.716989 -2.871232
2007-03-19 08:26:56 51°13.726 2°55.722 9.4882 2.677527 22.989803 -2.871232
2007-03-19 08:27:56 51°13.731 2°55.719 9.4774 2.83975 24.537734 -2.871232
2007-03-19 08:28:56 51°13.777 2°55.675 9.4638 2.772435 23.902549 -2.871232
2007-03-19 08:29:56 51°13.879 2°55.596 9.4911 2.772435 23.901926 -2.871232
2007-03-19 08:30:56 51°14.016 2°55.502 9.4256 2.789599 24.066082 -2.871232
2007-03-19 08:31:56 51°14.154 2°55.4 9.4209 2.770988 23.924353 -2.871232
2007-03-19 08:32:56 51°14.268 2°55.255 9.2966 2.586567 22.216476 -2.871232
2007-03-19 08:33:56 51°14.371 2°55.056 9.2623 2.439931 20.900675 -2.871232
2007-03-19 08:34:56 51°14.458 2°54.817 9.1993 2.758789 23.905813 -2.871232
2007-03-19 08:35:56 51°14.423 2°54.527 9.2305 3.358656 29.740773 -2.871232
2007-03-19 08:36:56 51°14.325 2°54.234 9.209 3.555407 31.700656 -2.871232
2007-03-19 08:37:56 51°14.22 2°53.936 9.2003 3.591764 32.074556 -2.871232
2007-03-19 08:38:55 51°14.113 2°53.641 9.2159 3.603987 32.206081 -2.871232
2007-03-19 08:39:56 51°14.001 2°53.334 9.2383 3.604298 32.19559 -2.871232
2007-03-19 08:40:56 51°13.891 2°53.035 9.2237 3.604919 32.186497 -2.871232
2007-03-19 08:41:57 51°13.78 2°52.725 9.2358 3.610099 32.240453 -2.871232
2007-03-19 08:42:56 51°13.671 2°52.428 9.2295 3.612792 32.260395 -2.871232
2007-03-19 08:43:57 51°13.558 2°52.122 9.224 3.616625 32.298445 -2.871232
2007-03-19 08:44:56 51°13.45 2°51.827 9.2213 3.622322 32.360983 -2.871232
2007-03-19 08:45:57 51°13.337 2°51.522 9.2338 3.628745 32.429056 -2.871232
2007-03-19 08:46:56 51°13.228 2°51.227 9.2313 3.633407 32.471961 -2.871232
2007-03-19 08:47:57 51°13.117 2°50.924 9.2438 3.637758 32.514347 -2.871232
2007-03-19 08:48:57 51°13.009 2°50.627 9.2416 3.639208 32.514204 -2.871232
2007-03-19 08:49:56 51°12.901 2°50.337 9.2513 3.640451 32.528268 -2.871232
2007-03-19 08:50:57 51°12.793 2°50.036 9.252 3.636929 32.498406 -2.871232
2007-03-19 08:51:56 51°12.689 2°49.744 9.2491 3.638483 32.508711 -2.871232
2007-03-19 08:52:57 51°12.583 2°49.442 9.252 3.639829 32.519523 -2.871232
2007-03-19 08:53:56 51°12.477 2°49.154 9.2764 3.643041 32.548862 -2.871232
2007-03-19 08:54:56 51°12.376 2°48.857 9.27 3.64014 32.49951 -2.871232
2007-03-19 08:55:56 51°12.277 2°48.554 9.2761 3.640865 32.508421 -2.871232
2007-03-19 08:56:56 51°12.186 2°48.246 9.2601 3.641901 32.523841 -2.871232
2007-03-19 08:57:56 51°12.112 2°47.926 9.2415 3.643663 32.556752 -2.871232
2007-03-19 08:58:56 51°12.055 2°47.605 9.2378 3.646978 32.599136 -2.871232
2007-03-19 08:59:57 51°12.002 2°47.276 9.227 3.646978 32.606005 -2.871232
2007-03-19 09:00:56 51°11.949 2°46.96 9.2216 3.645424 32.597424 -2.871232
2007-03-19 09:01:57 51°11.894 2°46.634 9.2175 3.645113 32.602923 -2.871232
2007-03-19 09:02:56 51°11.841 2°46.313 9.2272 3.645113 32.602923 -2.871232
2007-03-19 09:03:57 51°11.792 2°45.98 9.2243 3.646046 32.60876 -2.871232
2007-03-19 09:04:56 51°11.749 2°45.662 9.2273 3.647289 32.619406 -2.871232
2007-03-19 09:05:56 51°11.706 2°45.341 9.2296 3.648532 32.634352 -2.871232
2007-03-19 09:06:57 51°11.671 2°45.013 9.2293 3.649879 32.643448 -2.871232
2007-03-19 09:07:56 51°11.658 2°44.696 9.2291 3.651329 32.657015 -2.871232
2007-03-19 09:08:57 51°11.645 2°44.375 9.243 3.653505 32.674353 -2.871232
2007-03-19 09:09:56 51°11.633 2°44.07 9.2428 3.656302 32.697011 -2.871232
2007-03-19 09:10:57 51°11.622 2°43.746 9.2386 3.65941 32.725341 -2.871232
2007-03-19 09:11:56 51°11.611 2°43.431 9.2522 3.662518 32.757985 -2.871232
2007-03-19 09:12:56 51°11.597 2°43.115 9.2558 3.665418 32.778213 -2.871232
2007-03-19 09:13:56 51°11.565 2°42.798 9.27 3.668008 32.794481 -2.871232
2007-03-19 09:14:56 51°11.515 2°42.486 9.2623 3.67122 32.822969 -2.871232
2007-03-19 09:15:57 51°11.435 2°42.188 9.2657 3.675364 32.864192 -2.871232
2007-03-19 09:16:57 51°11.331 2°41.901 9.2736 3.676297 32.869142 -2.871232
2007-03-19 09:17:57 51°11.225 2°41.617 9.2708 3.676297 32.864817 -2.871232
2007-03-19 09:18:56 51°11.119 2°41.342 9.2743 3.675882 32.857236 -2.871232
2007-03-19 09:19:57 51°10.997 2°41.065 9.279 3.676089 32.859297 -2.871232
2007-03-19 09:20:56 51°10.878 2°40.795 9.2774 3.676814 32.86478 -2.871232
2007-03-19 09:21:56 51°10.759 2°40.518 9.2698 3.676918 32.86581 -2.871232
2007-03-19 09:22:57 51°10.64 2°40.241 9.2718 3.676504 32.867742 -2.871232
2007-03-19 09:23:56 51°10.524 2°39.968 9.2881 3.675882 32.856372 -2.871232
2007-03-19 09:24:57 51°10.406 2°39.686 9.2988 3.675882 32.844273 -2.871232
2007-03-19 09:25:56 51°10.289 2°39.413 9.3028 3.676607 32.840253 -2.871232
2007-03-19 09:26:57 51°10.171 2°39.13 9.3036 3.677021 32.841781 -2.871232
2007-03-19 09:27:56 51°10.055 2°38.855 9.3088 3.676607 32.8368 -2.871232
2007-03-19 09:28:57 51°9.932 2°38.581 9.3101 3.675674 32.822357 -2.871232
2007-03-19 09:29:56 51°9.811 2°38.312 9.3295 3.674431 32.804833 -2.871232
2007-03-19 09:30:56 51°9.688 2°38.043 9.3444 3.672877 32.773895 -2.871232
2007-03-19 09:31:57 51°9.541 2°37.79 9.3539 3.670597 32.738371 -2.871232
2007-03-19 09:32:56 51°9.404 2°37.55 9.3561 3.668422 32.707339 -2.871232
2007-03-19 09:33:57 51°9.303 2°37.371 9.3489 3.666868 32.691069 -2.871232
2007-03-19 09:34:56 51°9.251 2°37.258 9.3478 3.665624 32.686461 -2.871232
2007-03-19 09:35:57 51°9.236 2°37.174 9.3465 3.664796 32.681673 -2.871232
2007-03-19 09:36:57 51°9.227 2°37.129 9.3468 3.664381 32.679278 -2.871232
2007-03-19 09:37:57 51°9.204 2°37.119 9.3411 3.664485 32.681164 -2.871232
2007-03-19 09:38:57 51°9.184 2°37.123 9.3508 3.664381 32.668127 -2.871232
2007-03-19 09:39:57 51°9.166 2°37.122 9.351 3.662516 32.641924 -2.871232
2007-03-19 09:40:57 51°9.146 2°37.12 9.3561 3.662931 32.647745 -2.871232
2007-03-19 09:41:57 51°9.125 2°37.117 9.3637 3.663345 32.649283 -2.871232
2007-03-19 09:42:57 51°9.104 2°37.112 9.3574 3.664174 32.651502 -2.871232
2007-03-19 09:43:56 51°9.083 2°37.112 9.3627 3.663863 32.650992 -2.871232
2007-03-19 09:44:57 51°9.061 2°37.109 9.3563 3.663967 32.650305 -2.871232
2007-03-19 09:45:57 51°9.039 2°37.107 9.3537 3.663759 32.651678 -2.871232
2007-03-19 09:46:57 51°9.017 2°37.105 9.3561 3.663656 32.652365 -2.871232
2007-03-19 09:47:57 51°8.995 2°37.106 9.3423 3.663241 32.650827 -2.871232
2007-03-19 09:48:56 51°8.976 2°37.106 9.3493 3.663034 32.653914 -2.871232
2007-03-19 09:49:57 51°8.957 2°37.108 9.3351 3.66262 32.656663 -2.871232
2007-03-19 09:50:56 51°8.939 2°37.109 9.3355 3.662516 32.661637 -2.871232
2007-03-19 09:51:57 51°8.921 2°37.112 9.3224 3.662516 32.661637 -2.871232
2007-03-19 09:52:57 51°8.897 2°37.105 9.3178 3.662206 32.666274 -2.871232
2007-03-19 09:53:57 51°8.878 2°37.03 9.3069 3.662206 32.676573 -2.871232
2007-03-19 09:54:57 51°8.926 2°36.982 9.3071 3.662206 32.686879 -2.871232
2007-03-19 09:55:57 51°8.99 2°36.988 9.3307 3.661481 32.671951 -2.871232
2007-03-19 09:56:57 51°9.075 2°36.968 9.3418 3.659305 32.629782 -2.871232
2007-03-19 09:57:56 51°9.163 2°36.947 9.3481 3.651431 32.544869 -2.871232
2007-03-19 09:58:57 51°9.19 2°36.945 9.3535 3.645526 32.476113 -2.871232
2007-03-19 09:59:56 51°9.201 2°36.921 9.351 3.662516 32.650492 -2.871232
2007-03-19 10:00:57 51°9.179 2°36.914 9.3525 3.664174 32.660928 -2.871232
2007-03-19 10:01:56 51°9.155 2°36.918 9.3539 3.658476 32.602729 -2.871232
2007-03-19 10:02:57 51°9.131 2°36.925 9.35 3.659615 32.614025 -2.871232
2007-03-19 10:03:57 51°9.11 2°36.934 9.3487 3.657647 32.599647 -2.871232
2007-03-19 10:04:57 51°9.09 2°36.942 9.3497 3.655886 32.583044 -2.871232
2007-03-19 10:05:57 51°9.072 2°36.955 9.3441 3.653503 32.561135 -2.871232
2007-03-19 10:06:57 51°9.053 2°36.968 9.3406 3.654539 32.573969 -2.871232
2007-03-19 10:07:57 51°9.034 2°36.981 9.3405 3.651017 32.541616 -2.871232
2007-03-19 10:08:56 51°9.014 2°36.994 9.3356 3.6534 32.566947 -2.871232
2007-03-19 10:09:57 51°8.996 2°37.01 9.3368 3.651328 32.548969 -2.871232
2007-03-19 10:10:57 51°8.979 2°37.026 9.3347 3.655575 32.591939 -2.871232
2007-03-19 10:11:57 51°8.961 2°37.04 9.3308 3.653503 32.572249 -2.871232
2007-03-19 10:12:57 51°8.944 2°37.054 9.3289 3.64967 32.537662 -2.871232
2007-03-19 10:13:57 51°8.928 2°37.07 9.33 3.66003 32.642118 -2.871232
2007-03-19 10:14:57 51°8.913 2°37.085 9.3272 3.658994 32.634412 -2.871232
2007-03-19 10:15:57 51°8.891 2°37.082 9.3183 3.660652 32.653429 -2.871232
2007-03-19 10:16:57 51°8.883 2°37.017 9.3147 3.658165 32.636477 -2.871232
2007-03-19 10:17:57 51°8.922 2°37.012 9.3223 3.658787 32.64436 -2.871232
2007-03-19 10:18:57 51°8.95 2°37.099 9.3253 3.659098 32.646587 -2.871232
2007-03-19 10:19:57 51°8.967 2°37.209 9.3327 3.659409 32.64281 -2.871232
2007-03-19 10:20:57 51°8.974 2°37.307 9.3332 3.660445 32.647086 -2.871232
2007-03-19 10:21:57 51°8.975 2°37.395 9.3261 3.658787 32.634071 -2.871232
2007-03-19 10:22:57 51°8.975 2°37.477 9.3143 3.657958 32.632706 -2.871232
2007-03-19 10:23:56 51°8.983 2°37.546 9.31 3.656612 32.628772 -2.871232
2007-03-19 10:24:56 51°8.996 2°37.616 9.3098 3.655679 32.621233 -2.871232
2007-03-19 10:25:56 51°9.016 2°37.689 9.3083 3.656612 32.632202 -2.871232
2007-03-19 10:26:56 51°9.04 2°37.768 9.3146 3.655679 32.623805 -2.871232
2007-03-19 10:27:56 51°9.065 2°37.852 9.3178 3.655472 32.614891 -2.871232
2007-03-19 10:28:56 51°9.09 2°37.941 9.3226 3.655472 32.61232 -2.871232
2007-03-19 10:29:56 51°9.107 2°38.04 9.3176 3.655783 32.61369 -2.871232
2007-03-19 10:30:56 51°9.122 2°38.133 9.3145 3.656197 32.617802 -2.871232
2007-03-19 10:31:56 51°9.136 2°38.218 9.3094 3.651846 32.582336 -2.871232
2007-03-19 10:32:56 51°9.15 2°38.302 9.3102 3.652157 32.589702 -2.871232
2007-03-19 10:33:56 51°9.166 2°38.386 9.3083 3.648738 32.555776 -2.871232
2007-03-19 10:34:56 51°9.181 2°38.467 9.3048 3.653504 32.604783 -2.871232
2007-03-19 10:35:56 51°9.199 2°38.544 9.3063 3.651121 32.582846 -2.871232
2007-03-19 10:36:56 51°9.219 2°38.618 9.3054 3.65081 32.579762 -2.871232
2007-03-19 10:37:56 51°9.243 2°38.697 9.3062 3.652053 32.592101 -2.871232
2007-03-19 10:38:56 51°9.27 2°38.781 9.3064 3.65195 32.590216 -2.871232
2007-03-19 10:39:56 51°9.295 2°38.868 9.3083 3.652364 32.594329 -2.871232
2007-03-19 10:40:56 51°9.317 2°38.957 9.3066 3.652675 32.597413 -2.871232
2007-03-19 10:41:56 51°9.334 2°39.045 9.304 3.651328 32.586616 -2.871232
2007-03-19 10:42:57 51°9.348 2°39.136 9.3063 3.651328 32.586616 -2.871232
2007-03-19 10:43:56 51°9.359 2°39.224 9.3048 3.650189 32.575305 -2.871232
2007-03-19 10:44:56 51°9.372 2°39.311 9.3041 3.651017 32.585244 -2.871232
2007-03-19 10:45:56 51°9.387 2°39.399 9.3025 3.650914 32.585073 -2.871232
2007-03-19 10:46:56 51°9.401 2°39.486 9.3027 3.651535 32.590386 -2.871232
2007-03-19 10:47:56 51°9.416 2°39.574 9.3018 3.646045 32.538457 -2.871232
2007-03-19 10:48:56 51°9.425 2°39.665 9.3018 3.649878 32.578215 -2.871232
2007-03-19 10:49:57 51°9.416 2°39.756 9.3044 3.653089 32.608384 -2.871232
2007-03-19 10:50:56 51°9.392 2°39.84 9.2967 3.657648 32.65536 -2.871232
2007-03-19 10:51:56 51°9.368 2°39.915 9.2885 3.655472 32.636331 -2.871232
2007-03-19 10:52:56 51°9.354 2°39.98 9.2825 3.65309 32.624681 -2.871232
2007-03-19 10:53:56 51°9.343 2°40.041 9.2813 3.651639 32.613707 -2.871232
2007-03-19 10:54:56 51°9.336 2°40.096 9.2965 3.651743 32.606158 -2.871232
2007-03-19 10:55:56 51°9.327 2°40.146 9.2684 3.651018 32.596385 -2.871232
2007-03-19 10:56:56 51°9.32 2°40.214 9.2587 3.649464 32.592955 -2.871232
2007-03-19 10:57:56 51°9.333 2°40.308 9.2476 3.648324 32.605655 -2.871232
2007-03-19 10:58:56 51°9.368 2°40.422 9.2513 3.648428 32.614414 -2.871232
2007-03-19 10:59:56 51°9.421 2°40.566 9.2674 3.648842 32.605653 -2.871232
2007-03-19 11:00:56 51°9.488 2°40.739 9.2708 3.649257 32.598616 -2.871232
2007-03-19 11:01:56 51°9.591 2°40.969 9.2705 3.642419 32.531553 -2.871232
2007-03-19 11:02:56 51°9.704 2°41.207 9.269 3.605748 32.163384 -2.871232
2007-03-19 11:03:56 51°9.816 2°41.449 9.262 3.629573 32.404855 -2.871232
2007-03-19 11:04:56 51°9.932 2°41.699 9.2587 3.593835 32.057952 -2.871232
2007-03-19 11:05:56 51°10.062 2°41.978 9.261 3.63869 32.503923 -2.871232
2007-03-19 11:06:56 51°10.193 2°42.289 9.2635 3.616935 32.282829 -2.871232
2007-03-19 11:07:57 51°10.323 2°42.612 9.264 3.65309 32.640136 -2.871232
2007-03-19 11:08:56 51°10.454 2°42.923 9.2602 3.653815 32.647343 -2.871232
2007-03-19 11:09:56 51°10.589 2°43.241 9.2379 3.652365 32.644099 -2.871232
2007-03-19 11:10:56 51°10.725 2°43.559 9.2264 3.655266 32.693595 -2.871232
2007-03-19 11:11:56 51°10.859 2°43.88 9.2124 3.654541 32.693272 -2.871232
2007-03-19 11:12:56 51°10.98 2°44.217 9.2067 3.651329 32.672511 -2.871232
2007-03-19 11:13:56 51°11.1 2°44.55 9.203 3.64905 32.654994 -2.871232
2007-03-19 11:14:57 51°11.212 2°44.898 9.2023 3.648014 32.647266 -2.871232
2007-03-19 11:15:56 51°11.316 2°45.243 9.199 3.647289 32.64263 -2.871232
2007-03-19 11:16:57 51°11.425 2°45.593 9.195 3.64646 32.636102 -2.871232
2007-03-19 11:17:56 51°11.531 2°45.932 9.1942 3.645528 32.631984 -2.871232
2007-03-19 11:18:56 51°11.643 2°46.28 9.2005 3.645528 32.629403 -2.871232
2007-03-19 11:19:56 51°11.754 2°46.622 9.2042 3.645632 32.626132 -2.871232
2007-03-19 11:20:57 51°11.866 2°46.975 9.2051 3.643767 32.605853 -2.871232
2007-03-19 11:21:56 51°11.973 2°47.317 9.2051 3.644492 32.61307 -2.871232
2007-03-19 11:22:56 51°12.084 2°47.662 9.201 3.64615 32.630427 -2.871232
2007-03-19 11:23:57 51°12.194 2°48.013 9.2021 3.645735 32.628883 -2.871232
2007-03-19 11:24:56 51°12.309 2°48.346 9.2029 3.642731 32.598982 -2.871232
2007-03-19 11:25:57 51°12.426 2°48.693 9.203 3.64097 32.579737 -2.871232
2007-03-19 11:26:56 51°12.546 2°49.025 9.2046 3.640555 32.574755 -2.871232
2007-03-19 11:27:57 51°12.663 2°49.373 9.1994 3.638276 32.552936 -2.871232
2007-03-19 11:28:56 51°12.776 2°49.708 9.1957 3.637655 32.549326 -2.871232
2007-03-19 11:29:56 51°12.9 2°50.043 9.1929 3.64242 32.601047 -2.871232
2007-03-19 11:30:57 51°13.028 2°50.38 9.1906 3.642731 32.60586 -2.871232
2007-03-19 11:31:56 51°13.155 2°50.704 9.1881 3.643042 32.611535 -2.871232
2007-03-19 11:32:57 51°13.252 2°50.977 9.1789 3.643145 32.618589 -2.871232
2007-03-19 11:33:56 51°13.362 2°51.277 9.1791 3.641695 32.60931 -2.871232
2007-03-19 11:34:56 51°13.487 2°51.607 9.1853 3.633511 32.523535 -2.871232
2007-03-19 11:35:56 51°13.614 2°51.936 9.1886 3.63693 32.552412 -2.871232
2007-03-19 11:36:57 51°13.745 2°52.271 9.1899 3.6303 32.486431 -2.871232
2007-03-19 11:37:57 51°13.861 2°52.611 9.1926 3.624706 32.429065 -2.871232
2007-03-19 11:38:56 51°13.975 2°52.95 9.1891 3.628746 32.467544 -2.871232
2007-03-19 11:39:57 51°14.093 2°53.299 9.181 3.629471 32.479898 -2.871232
2007-03-19 11:40:56 51°14.211 2°53.635 9.1769 3.625845 32.45324 -2.871232
2007-03-19 11:41:57 51°14.316 2°53.981 9.1762 3.629782 32.493277 -2.871232
2007-03-19 11:42:56 51°14.396 2°54.31 9.1689 3.624809 32.446356 -2.871232
2007-03-19 11:43:56 51°14.435 2°54.665 9.1589 3.611239 32.316454 -2.871232
2007-03-19 11:44:56 51°14.388 2°55.004 9.1145 3.602745 32.248138 -2.871232
2007-03-19 11:45:57 51°14.264 2°55.269 8.9028 3.521956 31.533131 -2.871232
2007-03-19 11:46:57 51°14.107 2°55.429 9.1163 3.272116 29.112876 -2.871232
2007-03-19 11:47:56 51°13.977 2°55.523 9.1002 2.918767 25.546081 -2.871232
2007-03-19 11:48:57 51°13.876 2°55.599 9.0889 2.643315 22.948024 -2.871232
2007-03-19 11:49:56 51°13.792 2°55.667 9.3045 2.423813 20.80882 -2.871232
2007-03-19 11:50:57 51°13.721 2°55.751 9.1662 2.341681 19.991814 -2.871232
2007-03-19 11:51:56 51°13.669 2°55.843 9.2252 2.136363 18.135724 -2.871232
2007-03-19 11:52:57 51°13.631 2°55.946 9.1855 2.055726 17.374782 -2.871232
2007-03-19 11:53:57 51°13.61 2°56.032 9.2528 1.853726 15.524855 -2.871232
2007-03-19 11:54:57 51°13.599 2°56.087 9.2844 2.080607 17.569903 -2.871232
2007-03-19 11:55:57 51°13.599 2°56.093 9.3384 2.626981 22.658443 -2.871232
2007-03-19 11:56:57 51°13.597 2°56.094 9.3186 2.779778 24.095926 -2.871232
2007-03-19 11:57:57 51°13.597 2°56.095 9.3265 3.099905 27.169369 -2.871232
2007-03-19 11:58:57 51°13.598 2°56.095 9.3317 2.994274 26.139547 -2.871232
2007-03-19 11:59:57 51°13.598 2°56.096 9.3325 3.044966 26.626256 -2.871232
2007-03-19 12:00:57 51°13.598 2°56.096 9.3518 3.052518 26.690081 -2.871232
2007-03-19 12:01:57 51°13.598 2°56.095 9.338 3.030896 26.475217 -2.871232
2007-03-19 12:02:57 51°13.598 2°56.095 9.4622 -999 -999 -2.871232
2007-03-19 12:03:57 51°13.598 2°56.095 9.6586 0.048213 0.3225 -2.871232
2007-03-19 12:04:57 51°13.598 2°56.095 9.7024 0.038539 0.255943 -2.871232
2007-03-19 12:05:57 51°13.598 2°56.094 9.8016 0.034629 0.229223 -2.871232
2007-03-19 12:06:57 51°13.598 2°56.095 9.8925 0.032159 0.212408 -2.871232
2007-03-19 12:07:57 51°13.598 2°56.094 10.011 0.030306 0.199828 -2.871232
2007-03-19 12:08:57 51°13.598 2°56.094 10.0559 0.028866 0.190055 -2.871232
2007-03-19 12:09:57 51°13.598 2°56.094 10.1613 0.027836 0.183073 -2.871232
2007-03-19 12:10:57 51°13.597 2°56.094 10.3105 0.02691 0.176799 -2.871232
2007-03-19 12:11:57 51°13.597 2°56.095 10.3902 0.026087 0.171225 -2.871232
2007-03-19 12:12:57 51°13.597 2°56.095 10.4659 0.025469 0.167035 -2.871232
2007-03-19 12:13:57 51°13.597 2°56.095 10.5883 0.024852 0.16285 -2.871232
2007-03-19 12:14:57 51°13.598 2°56.095 10.6588 0.024337 0.159359 -2.871232
2007-03-19 12:15:57 51°13.597 2°56.095 10.7591 0.023823 0.155874 -2.871232
2007-03-19 12:16:57 51°13.598 2°56.094 10.8354 0.023411 0.153076 -2.871232
2007-03-19 12:17:57 51°13.598 2°56.094 10.9424 0.022999 0.150287 -2.871232
2007-03-19 12:18:57 51°13.597 2°56.094 10.9947 0.022588 0.147498 -2.871232
2007-03-19 12:19:57 51°13.597 2°56.095 11.0947 0.022176 0.144718 -2.871232
2007-03-19 12:20:57 51°13.597 2°56.095 11.1752 0.021867 0.142623 -2.871232
2007-03-19 12:21:57 51°13.597 2°56.096 11.2464 0.021559 0.140532 -2.871232
2007-03-19 12:22:57 51°13.597 2°56.096 11.3034 0.02125 0.138447 -2.871232
2007-03-19 12:23:57 51°13.598 2°56.096 11.3956 0.020941 0.136364 -2.871232
2007-03-19 12:24:57 51°13.598 2°56.095 11.4671 0.020735 0.134961 -2.871232
2007-03-19 12:25:57 51°13.598 2°56.095 11.5206 0.020427 0.132883 -2.871232
2007-03-19 12:26:57 51°13.597 2°56.095 11.6019 0.020221 0.13149 -2.871232
2007-03-19 12:27:57 51°13.597 2°56.094 11.6739 0.020015 0.130095 -2.871232
2007-03-19 12:28:57 51°13.597 2°56.095 11.726 0.019706 0.128025 -2.871232
2007-03-19 12:29:57 51°13.598 2°56.094 11.8035 0.0195 0.126633 -2.871232
2007-03-19 12:30:57 51°13.598 2°56.095 11.8668 0.019295 0.125244 -2.871232
2007-03-19 12:31:57 51°13.598 2°56.095 11.9314 0.019089 0.123856 -2.871232
2007-03-19 12:32:57 51°13.597 2°56.096 11.9982 0.018986 0.123141 -2.871232
2007-03-19 12:33:57 51°13.597 2°56.096 12.0642 0.01878 0.121756 -2.871232
2007-03-19 12:34:57 51°13.597 2°56.095 12.1247 0.018574 0.120373 -2.871232
2007-03-19 12:35:57 51°13.597 2°56.095 12.2064 0.018368 0.118991 -2.871232
2007-03-19 12:36:57 51°13.598 2°56.094 12.256 0.018265 0.118286 -2.871232
2007-03-19 12:37:57 51°13.598 2°56.095 12.3056 0.01806 0.116909 -2.871232
2007-03-19 12:38:57 51°13.598 2°56.095 12.348 0.017854 0.115534 -2.871232
2007-03-19 12:39:57 51°13.598 2°56.095 12.412 0.017751 0.114837 -2.871232
2007-03-19 12:40:57 51°13.598 2°56.096 12.4731 0.017545 0.113467 -2.871232
2007-03-19 12:41:57 51°13.599 2°56.095 12.5195 0.017442 0.112771 -2.871232
2007-03-19 12:42:57 51°13.598 2°56.095 12.5818 0.017236 0.111406 -2.871232
2007-03-19 12:43:57 51°13.598 2°56.095 12.646 0.017133 0.110712 -2.871232
2007-03-19 12:44:57 51°13.598 2°56.095 12.7018 0.01703 0.110016 -2.871232
2007-03-19 12:45:57 51°13.598 2°56.095 12.7483 0.016927 0.10932 -2.871232
2007-03-19 12:46:57 51°13.598 2°56.094 12.8047 0.016722 0.107957 -2.871232
2007-03-19 12:47:57 51°13.599 2°56.094 12.864 0.016619 0.107263 -2.871232
2007-03-19 12:48:57 51°13.598 2°56.095 12.8793 0.016516 0.10657 -2.871232
2007-03-19 12:49:57 51°13.599 2°56.095 12.9644 0.01631 0.105213 -2.871232
2007-03-19 12:50:57 51°13.599 2°56.095 12.9932 0.016207 0.104523 -2.871232
2007-03-19 12:51:57 51°13.598 2°56.096 13.0532 0.016104 0.103832 -2.871232
2007-03-19 12:52:57 51°13.599 2°56.095 13.1061 0.016001 0.103143 -2.871232
2007-03-19 12:53:57 51°13.599 2°56.095 13.1484 0.015898 0.102453 -2.871232
2007-03-19 12:54:57 51°13.599 2°56.095 13.2018 0.015795 0.101764 -2.871232
2007-03-19 12:55:57 51°13.599 2°56.094 13.2819 0.015693 0.101077 -2.871232